PWSweather.com
Personal Weather Stations
Station Observations
IVENETOL9
Brugine, BrugineIT 35020

BrugineBrugineIT 35020

Lat: 45.2975, Lon: 11.9962777

Elevation: 19

Station Type: Davis Vantage Pro2 Plus

http://www.meteobrugine.it/

Latest ConditionsUpdated 9:15:26 PM GMT+01:01 Sunday, Aug 2, 2015
Currently Today's Max Today's Min Today's Average
Temperature 68.5°F20.3°C 81.0°F27.2°C 61.4°F16.3°C 71.1°F21.7°C
Dew Point 67.0°F19.4°C 69.9°F21.1°C 61.1°F16.2°C 65.8°F18.8°C
Winds Calm Calm 0.6 mph ENE1.0 kmh ENE - 0.0 mph 0.0 kmh
Wind Gusts -- 2.0 mph3.2 kmh - -
Humidity 95% 100% 65% 85%
Pressure 30.02 in1016.6 mb 30.03 in1016.9 mb 29.98 in1015.2 mb -
Precipitation - 0.39 in9.9 mm - -
Hour Temp Dew Point Humidity Winds Wind Gusts Pressure Precip Precip Rate Daily Precip Total
09:15 PM 68.5°F20.3°C 67.0°F19.4°C 95% Calm Calm -- 30.02 in1016.6 mb - 0.00 in0.0 mm 0.39 in9.9 mm
09:00 PM 69.0°F20.6°C 67.5°F19.7°C 95% Calm Calm -- 30.03 in1016.9 mb - 0.00 in0.0 mm 0.39 in9.9 mm
08:45 PM 69.4°F20.8°C 67.6°F19.8°C 94% Calm Calm -- 30.02 in1016.6 mb - 0.00 in0.0 mm 0.39 in9.9 mm
08:30 PM 69.5°F20.8°C 67.7°F19.8°C 94% Calm Calm -- 30.02 in1016.6 mb - 0.00 in0.0 mm 0.39 in9.9 mm
08:15 PM 70.1°F21.2°C 68.0°F20.0°C 93% Calm Calm -- 30.02 in1016.6 mb - 0.00 in0.0 mm 0.39 in9.9 mm
08:00 PM 71.0°F21.7°C 68.2°F20.1°C 91% Calm Calm -- 30.01 in1016.3 mb - 0.00 in0.0 mm 0.39 in9.9 mm
07:45 PM 72.0°F22.2°C 68.6°F20.3°C 89% Calm Calm -- 30.01 in1016.3 mb - 0.00 in0.0 mm 0.39 in9.9 mm
07:30 PM 74.1°F23.4°C 68.9°F20.5°C 84% Calm Calm -- 30.01 in1016.3 mb - 0.00 in0.0 mm 0.39 in9.9 mm
07:15 PM 74.4°F23.6°C 68.9°F20.5°C 83% Calm Calm -- 30.00 in1015.9 mb - 0.00 in0.0 mm 0.39 in9.9 mm
07:00 PM 75.0°F23.9°C 69.1°F20.6°C 82% Calm Calm -- 30.00 in1015.9 mb - 0.00 in0.0 mm 0.39 in9.9 mm
06:45 PM 75.9°F24.4°C 68.9°F20.5°C 79% Calm Calm -- 30.00 in1015.9 mb - 0.00 in0.0 mm 0.39 in9.9 mm
06:30 PM 77.2°F25.1°C 68.7°F20.4°C 75% Calm Calm -- 30.00 in1015.9 mb - 0.00 in0.0 mm 0.39 in9.9 mm
06:15 PM 77.8°F25.4°C 68.4°F20.2°C 73% Calm Calm -- 30.00 in1015.9 mb - 0.00 in0.0 mm 0.39 in9.9 mm
06:00 PM 78.6°F25.9°C 67.6°F19.8°C 69% Calm Calm -- 30.00 in1015.9 mb - 0.00 in0.0 mm 0.39 in9.9 mm
05:45 PM 78.9°F26.1°C 68.3°F20.2°C 70% Calm Calm -- 30.00 in1015.9 mb - 0.00 in0.0 mm 0.39 in9.9 mm
05:30 PM 79.4°F26.3°C 68.8°F20.4°C 70% Calm Calm -- 30.00 in1015.9 mb - 0.00 in0.0 mm 0.39 in9.9 mm
05:15 PM 80.2°F26.8°C 68.2°F20.1°C 67% Calm Calm 1.0 mph1.6 kmh 30.00 in1015.9 mb - 0.00 in0.0 mm 0.39 in9.9 mm
05:00 PM 79.9°F26.6°C 69.2°F20.7°C 70% Calm Calm -- 30.00 in1015.9 mb - 0.00 in0.0 mm 0.39 in9.9 mm
04:45 PM 78.6°F25.9°C 68.8°F20.4°C 72% Calm Calm -- 30.01 in1016.3 mb - 0.00 in0.0 mm 0.39 in9.9 mm
04:30 PM 80.0°F26.7°C 67.6°F19.8°C 66% Calm Calm -- 30.01 in1016.3 mb - 0.00 in0.0 mm 0.39 in9.9 mm
04:15 PM 79.6°F26.4°C 67.7°F19.8°C 67% 0.1 mph ENE0.2 kmh ENE 1.0 mph1.6 kmh 30.01 in1016.3 mb - 0.00 in0.0 mm 0.39 in9.9 mm
04:00 PM 80.1°F26.7°C 68.2°F20.1°C 67% Calm Calm 1.0 mph1.6 kmh 30.01 in1016.3 mb - 0.00 in0.0 mm 0.39 in9.9 mm
03:45 PM 81.0°F27.2°C 69.0°F20.6°C 67% 0.2 mph E0.3 kmh E 1.0 mph1.6 kmh 30.01 in1016.3 mb - 0.00 in0.0 mm 0.39 in9.9 mm
03:30 PM 80.6°F27.0°C 69.5°F20.8°C 69% 0.6 mph ENE1.0 kmh ENE 2.0 mph3.2 kmh 30.01 in1016.3 mb - 0.00 in0.0 mm 0.39 in9.9 mm
03:15 PM 80.6°F27.0°C 69.9°F21.1°C 70% Calm Calm 1.0 mph1.6 kmh 30.02 in1016.6 mb - 0.00 in0.0 mm 0.39 in9.9 mm
03:00 PM 79.7°F26.5°C 68.6°F20.3°C 69% Calm Calm -- 30.02 in1016.6 mb - 0.00 in0.0 mm 0.39 in9.9 mm
02:45 PM 78.7°F25.9°C 68.9°F20.5°C 72% Calm Calm 1.0 mph1.6 kmh 30.02 in1016.6 mb - 0.00 in0.0 mm 0.39 in9.9 mm
02:30 PM 79.8°F26.6°C 68.7°F20.4°C 69% 0.1 mph NE0.2 kmh NE 1.0 mph1.6 kmh 30.02 in1016.6 mb - 0.00 in0.0 mm 0.39 in9.9 mm
02:15 PM 79.2°F26.2°C 67.7°F19.8°C 68% Calm Calm 1.0 mph1.6 kmh 30.02 in1016.6 mb - 0.00 in0.0 mm 0.39 in9.9 mm
02:00 PM 76.8°F24.9°C 67.5°F19.7°C 73% Calm Calm -- 30.03 in1016.9 mb - 0.00 in0.0 mm 0.39 in9.9 mm
01:45 PM 77.0°F25.0°C 67.7°F19.8°C 73% Calm Calm -- 30.03 in1016.9 mb - 0.00 in0.0 mm 0.39 in9.9 mm
01:30 PM 77.5°F25.3°C 67.0°F19.4°C 70% Calm Calm 1.0 mph1.6 kmh 30.03 in1016.9 mb - 0.00 in0.0 mm 0.39 in9.9 mm
01:15 PM 80.0°F26.7°C 68.1°F20.1°C 67% 0.1 mph N0.2 kmh N -- 30.03 in1016.9 mb - 0.00 in0.0 mm 0.39 in9.9 mm
01:00 PM 78.6°F25.9°C 65.9°F18.8°C 65% Calm Calm -- 30.03 in1016.9 mb - 0.00 in0.0 mm 0.39 in9.9 mm
12:45 PM 77.3°F25.2°C 66.8°F19.3°C 70% Calm Calm 1.0 mph1.6 kmh 30.03 in1016.9 mb - 0.00 in0.0 mm 0.39 in9.9 mm
12:30 PM 77.9°F25.5°C 67.3°F19.6°C 70% Calm Calm 1.0 mph1.6 kmh 30.03 in1016.9 mb - 0.00 in0.0 mm 0.39 in9.9 mm
12:15 PM 76.9°F24.9°C 66.0°F18.9°C 69% 0.1 mph SW0.2 kmh SW 1.0 mph1.6 kmh 30.03 in1016.9 mb - 0.00 in0.0 mm 0.39 in9.9 mm
12:00 PM 76.4°F24.7°C 66.3°F19.1°C 71% Calm Calm -- 30.03 in1016.9 mb - 0.00 in0.0 mm 0.39 in9.9 mm
11:45 AM 75.6°F24.2°C 66.3°F19.1°C 73% Calm Calm -- 30.03 in1016.9 mb - 0.00 in0.0 mm 0.39 in9.9 mm
11:30 AM 75.2°F24.0°C 66.3°F19.1°C 74% Calm Calm -- 30.03 in1016.9 mb - 0.00 in0.0 mm 0.39 in9.9 mm
11:15 AM 75.3°F24.1°C 65.6°F18.7°C 72% Calm Calm 1.0 mph1.6 kmh 30.03 in1016.9 mb - 0.00 in0.0 mm 0.39 in9.9 mm
11:00 AM 75.0°F23.9°C 65.0°F18.3°C 71% Calm Calm -- 30.03 in1016.9 mb - 0.00 in0.0 mm 0.39 in9.9 mm
10:45 AM 74.5°F23.6°C 66.1°F18.9°C 75% Calm Calm -- 30.03 in1016.9 mb - 0.00 in0.0 mm 0.39 in9.9 mm
10:30 AM 74.0°F23.3°C 66.0°F18.9°C 76% Calm Calm -- 30.03 in1016.9 mb - 0.00 in0.0 mm 0.39 in9.9 mm
10:15 AM 74.6°F23.7°C 66.2°F19.0°C 75% Calm Calm -- 30.03 in1016.9 mb - 0.00 in0.0 mm 0.39 in9.9 mm
10:00 AM 74.3°F23.5°C 66.7°F19.3°C 77% Calm Calm -- 30.02 in1016.6 mb - 0.00 in0.0 mm 0.39 in9.9 mm
09:45 AM 74.6°F23.7°C 66.2°F19.0°C 75% Calm Calm 1.0 mph1.6 kmh 30.02 in1016.6 mb - 0.00 in0.0 mm 0.39 in9.9 mm
09:30 AM 73.2°F22.9°C 67.0°F19.4°C 81% Calm Calm -- 30.02 in1016.6 mb - 0.00 in0.0 mm 0.39 in9.9 mm
09:15 AM 73.0°F22.8°C 67.5°F19.7°C 83% Calm Calm -- 30.02 in1016.6 mb - 0.00 in0.0 mm 0.39 in9.9 mm
09:00 AM 71.6°F22.0°C 66.2°F19.0°C 83% Calm Calm -- 30.02 in1016.6 mb - 0.01 in0.3 mm 0.39 in9.9 mm
08:45 AM 71.2°F21.8°C 66.2°F19.0°C 84% Calm Calm -- 30.01 in1016.3 mb - 0.01 in0.3 mm 0.39 in9.9 mm
08:30 AM 70.4°F21.3°C 66.7°F19.3°C 88% Calm Calm -- 30.01 in1016.3 mb - 0.00 in0.0 mm 0.39 in9.9 mm
08:15 AM 69.7°F20.9°C 67.0°F19.4°C 91% Calm Calm -- 30.01 in1016.3 mb - 0.00 in0.0 mm 0.39 in9.9 mm
08:00 AM 68.6°F20.3°C 66.5°F19.2°C 93% Calm Calm -- 30.01 in1016.3 mb - 0.00 in0.0 mm 0.39 in9.9 mm
07:45 AM 67.5°F19.7°C 66.0°F18.9°C 95% Calm Calm -- 30.01 in1016.3 mb - 0.00 in0.0 mm 0.39 in9.9 mm
07:30 AM 66.5°F19.2°C 66.2°F19.0°C 99% Calm Calm -- 30.00 in1015.9 mb - 0.00 in0.0 mm 0.39 in9.9 mm
07:15 AM 65.6°F18.7°C 65.3°F18.5°C 99% Calm Calm -- 30.00 in1015.9 mb - 0.00 in0.0 mm 0.39 in9.9 mm
07:00 AM 64.8°F18.2°C 64.8°F18.2°C 100% Calm Calm -- 30.00 in1015.9 mb - 0.00 in0.0 mm 0.39 in9.9 mm
06:45 AM 64.0°F17.8°C 64.0°F17.8°C 100% Calm Calm -- 30.00 in1015.9 mb - 0.00 in0.0 mm 0.39 in9.9 mm
06:30 AM 63.4°F17.4°C 63.4°F17.4°C 100% Calm Calm -- 30.00 in1015.9 mb - 0.00 in0.0 mm 0.39 in9.9 mm
06:15 AM 62.9°F17.2°C 62.9°F17.2°C 100% Calm Calm -- 29.99 in1015.6 mb - 0.00 in0.0 mm 0.39 in9.9 mm
06:00 AM 62.1°F16.7°C 62.1°F16.7°C 100% Calm Calm -- 29.99 in1015.6 mb - 0.00 in0.0 mm 0.39 in9.9 mm
05:45 AM 61.4°F16.3°C 61.4°F16.3°C 100% Calm Calm -- 29.99 in1015.6 mb - 0.00 in0.0 mm 0.39 in9.9 mm
05:30 AM 61.4°F16.3°C 61.1°F16.2°C 99% Calm Calm -- 29.99 in1015.6 mb - 0.00 in0.0 mm 0.39 in9.9 mm
05:15 AM 61.4°F16.3°C 61.1°F16.2°C 99% Calm Calm -- 29.99 in1015.6 mb - 0.00 in0.0 mm 0.39 in9.9 mm
05:00 AM 61.7°F16.5°C 61.4°F16.3°C 99% Calm Calm -- 29.99 in1015.6 mb - 0.00 in0.0 mm 0.39 in9.9 mm
04:45 AM 61.9°F16.6°C 61.6°F16.4°C 99% Calm Calm -- 29.98 in1015.2 mb - 0.00 in0.0 mm 0.39 in9.9 mm
04:30 AM 62.3°F16.8°C 62.0°F16.7°C 99% Calm Calm -- 29.98 in1015.2 mb - 0.00 in0.0 mm 0.39 in9.9 mm
04:15 AM 62.7°F17.1°C 62.4°F16.9°C 99% Calm Calm -- 29.98 in1015.2 mb - 0.00 in0.0 mm 0.39 in9.9 mm
04:00 AM 63.1°F17.3°C 62.8°F17.1°C 99% Calm Calm -- 29.98 in1015.2 mb - 0.00 in0.0 mm 0.39 in9.9 mm
03:45 AM 63.1°F17.3°C 62.8°F17.1°C 99% Calm Calm -- 29.98 in1015.2 mb - 0.00 in0.0 mm 0.39 in9.9 mm
03:30 AM 63.2°F17.3°C 62.9°F17.2°C 99% Calm Calm -- 29.98 in1015.2 mb - 0.00 in0.0 mm 0.39 in9.9 mm
03:15 AM 63.1°F17.3°C 62.8°F17.1°C 99% Calm Calm -- 29.98 in1015.2 mb - 0.00 in0.0 mm 0.39 in9.9 mm
03:00 AM 63.1°F17.3°C 62.8°F17.1°C 99% Calm Calm -- 29.98 in1015.2 mb - 0.00 in0.0 mm 0.39 in9.9 mm
02:45 AM 63.1°F17.3°C 62.8°F17.1°C 99% Calm Calm -- 29.99 in1015.6 mb - 0.00 in0.0 mm 0.39 in9.9 mm
02:30 AM 62.8°F17.1°C 62.6°F17.0°C 99% Calm Calm -- 29.99 in1015.6 mb - 0.00 in0.0 mm 0.39 in9.9 mm
02:15 AM 62.5°F16.9°C 62.2°F16.8°C 99% Calm Calm -- 29.99 in1015.6 mb - 0.00 in0.0 mm 0.39 in9.9 mm
02:00 AM 62.3°F16.8°C 62.0°F16.7°C 99% Calm Calm -- 29.99 in1015.6 mb - 0.02 in0.5 mm 0.39 in9.9 mm
01:45 AM 62.1°F16.7°C 61.5°F16.4°C 98% Calm Calm -- 29.99 in1015.6 mb - 0.03 in0.8 mm 0.36 in9.1 mm
01:30 AM 62.2°F16.8°C 61.6°F16.4°C 98% Calm Calm -- 29.99 in1015.6 mb - 0.03 in0.8 mm 0.33 in8.4 mm
01:15 AM 62.0°F16.7°C 61.4°F16.3°C 98% Calm Calm -- 29.99 in1015.6 mb - 0.09 in2.3 mm 0.32 in8.1 mm
01:00 AM 62.4°F16.9°C 61.8°F16.6°C 98% Calm Calm -- 29.99 in1015.6 mb - 0.09 in2.3 mm 0.24 in6.1 mm
12:45 AM 63.1°F17.3°C 62.2°F16.8°C 97% Calm Calm 1.0 mph1.6 kmh 29.99 in1015.6 mb - 0.06 in1.5 mm 0.14 in3.6 mm
12:30 AM 65.3°F18.5°C 64.7°F18.2°C 98% Calm Calm -- 29.99 in1015.6 mb - 0.03 in0.8 mm 0.08 in2.0 mm
12:15 AM 65.8°F18.8°C 65.3°F18.5°C 98% Calm Calm 1.0 mph1.6 kmh 29.99 in1015.6 mb - 0.04 in1.0 mm 0.05 in1.3 mm
12:00 AM 65.7°F18.7°C 65.1°F18.4°C 98% Calm Calm -- 29.99 in1015.6 mb - 0.00 in0.0 mm 0.01 in0.3 mm